createdAt,value
2022-08-22T00:01:19.904Z,7
2022-08-22T00:02:55.135Z,4.8
2022-08-22T00:03:09.860Z,4.6
2022-08-22T00:03:23.755Z,5.9
2022-08-22T00:05:27.569Z,5.6
2022-08-22T00:07:31.426Z,7.2
2022-08-22T00:09:35.292Z,6.5
2022-08-22T00:11:39.126Z,6.8
2022-08-22T00:13:42.967Z,6.3
2022-08-22T00:15:50.086Z,6.4
2022-08-22T00:17:53.937Z,6.9
2022-08-22T00:19:57.793Z,6.7
2022-08-22T00:22:01.647Z,6.1
2022-08-22T00:24:05.474Z,6
2022-08-22T00:26:09.324Z,6.6
2022-08-22T00:28:13.174Z,7.1
2022-08-22T00:30:20.306Z,6.8
2022-08-22T00:34:28.008Z,6.1
2022-08-22T00:36:31.848Z,6.9
2022-08-22T00:38:35.691Z,7
2022-08-22T00:40:39.541Z,6.3
2022-08-22T00:42:43.422Z,6.5
2022-08-22T00:44:50.547Z,6.4
2022-08-22T00:48:58.257Z,6.2
2022-08-22T00:50:01.812Z,6.1
2022-08-22T00:52:05.647Z,6.7
2022-08-22T00:54:11.398Z,6.4
2022-08-22T00:56:13.358Z,5.8
2022-08-22T00:58:22.117Z,6.4
2022-08-22T01:00:25.919Z,6.4
2022-08-22T01:02:29.777Z,6.1
2022-08-22T01:04:33.599Z,6.1
2022-08-22T01:06:37.438Z,6.3
2022-08-22T01:08:41.306Z,5.9
2022-08-22T01:10:45.145Z,5.9
2022-08-22T01:12:52.276Z,6.7
2022-08-22T01:14:56.156Z,6.6
2022-08-22T01:16:59.961Z,5.8
2022-08-22T01:21:07.662Z,7.1
2022-08-22T01:29:27.779Z,6.1
2022-08-22T01:31:30.181Z,5.4
2022-08-22T01:33:34.024Z,6
2022-08-22T01:35:37.890Z,6
2022-08-22T01:37:43.478Z,5.7
2022-08-22T01:44:00.627Z,6.1
2022-08-22T01:46:00.430Z,5.6
2022-08-22T01:49:07.837Z,6.3
2022-08-22T01:51:11.699Z,5.8
2022-08-22T01:53:15.532Z,6.2
2022-08-22T01:55:22.667Z,6.8
2022-08-22T01:57:26.542Z,6.1
2022-08-22T01:59:34.062Z,7
2022-08-22T02:01:34.237Z,6.4
2022-08-22T02:03:38.093Z,6.6
2022-08-22T02:05:41.935Z,6.2
2022-08-22T02:07:45.775Z,6.7
2022-08-22T02:11:56.743Z,7
2022-08-22T02:14:00.609Z,6.2
2022-08-22T02:16:04.452Z,6.6
2022-08-22T02:18:08.307Z,7.1
2022-08-22T02:20:12.135Z,7.1
2022-08-22T02:22:15.993Z,6.9
2022-08-22T02:26:26.959Z,6.8
2022-08-22T02:28:30.799Z,6.9
2022-08-22T02:30:34.623Z,6.9
2022-08-22T02:32:38.466Z,7.3
2022-08-22T02:34:42.318Z,7.2
2022-08-22T02:36:46.135Z,7.6
2022-08-22T02:38:53.297Z,7.5
2022-08-22T02:40:57.113Z,6.6
2022-08-22T02:45:25.676Z,6.8
2022-08-22T02:47:29.510Z,7
2022-08-22T02:49:33.361Z,6.4
2022-08-22T02:55:48.200Z,6.4
2022-08-22T02:57:52.098Z,5.9
2022-08-22T02:59:55.886Z,5.9
2022-08-22T03:01:59.740Z,6.6
2022-08-22T03:04:03.592Z,6.7
2022-08-22T03:08:14.604Z,6.9
2022-08-22T03:10:18.436Z,7
2022-08-22T03:12:22.270Z,7.7
2022-08-22T03:14:26.145Z,6.6
2022-08-22T03:16:30.000Z,7.8
2022-08-22T03:18:33.845Z,7.9
2022-08-22T03:20:41.000Z,7.3
2022-08-22T03:22:44.839Z,7
2022-08-22T03:24:48.678Z,7.6
2022-08-22T03:26:52.530Z,7
2022-08-22T03:28:59.255Z,7.6
2022-08-22T03:31:00.248Z,6.9
2022-08-22T03:39:18.927Z,7.1
2022-08-22T03:40:22.582Z,7.6
2022-08-22T03:42:26.374Z,6.9
2022-08-22T03:44:30.240Z,6.4
2022-08-22T03:46:34.077Z,7.7
2022-08-22T03:48:41.226Z,7.6
2022-08-22T03:50:45.065Z,7.8
2022-08-22T03:52:48.925Z,8
2022-08-22T03:54:52.762Z,8.6
2022-08-22T03:56:57.491Z,7.4
2022-08-22T03:59:00.481Z,8.8
2022-08-22T04:03:11.448Z,8.8
2022-08-22T04:05:15.350Z,7.7
2022-08-22T04:07:28.350Z,7.9
2022-08-22T04:11:26.886Z,8.2
2022-08-22T04:13:30.739Z,8
2022-08-22T04:15:34.590Z,8
2022-08-22T04:17:41.718Z,8.6
2022-08-22T04:19:45.565Z,8.4
2022-08-22T04:21:49.419Z,7.5
2022-08-22T04:23:53.293Z,9.1
2022-08-22T04:25:57.107Z,8.6
2022-08-22T04:30:04.825Z,8.1
2022-08-22T04:32:14.653Z,8.7
2022-08-22T04:34:15.786Z,8.4
2022-08-22T04:39:27.063Z,9.4
2022-08-22T04:41:30.926Z,8.5
2022-08-22T04:43:34.779Z,8.9
2022-08-22T04:45:41.942Z,8.6
2022-08-22T04:49:49.611Z,9.2
2022-08-22T04:51:53.459Z,8.1
2022-08-22T04:53:57.300Z,8.5
2022-08-22T04:56:04.150Z,9.9
2022-08-22T04:58:06.425Z,8.5
2022-08-22T05:02:16.030Z,8.7
2022-08-22T05:04:19.872Z,9.2
2022-08-22T05:06:23.768Z,8.1
2022-08-22T05:08:27.574Z,8.6
2022-08-22T05:10:31.435Z,9
2022-08-22T05:12:35.309Z,8
2022-08-22T05:14:42.432Z,9.2
2022-08-22T05:16:46.354Z,9
2022-08-22T05:18:50.145Z,8.7
2022-08-22T05:20:53.985Z,8.1
2022-08-22T05:22:57.813Z,9.9
2022-08-22T05:25:01.656Z,8.9
2022-08-22T05:27:05.493Z,8.6
2022-08-22T05:29:12.639Z,9.6
2022-08-22T05:31:16.463Z,9.3
2022-08-22T05:33:20.317Z,9.6
2022-08-22T05:36:27.746Z,10.6
2022-08-22T05:38:31.588Z,10
2022-08-22T05:40:35.445Z,10.2
2022-08-22T05:42:42.596Z,9.5
2022-08-22T05:44:46.439Z,10.9
2022-08-22T05:46:50.509Z,9.4
2022-08-22T05:48:54.168Z,10
2022-08-22T05:50:58.011Z,9.1
2022-08-22T05:53:01.861Z,9.6
2022-08-22T05:55:05.683Z,9.4
2022-08-22T05:57:12.862Z,10
2022-08-22T05:59:16.713Z,10.3
2022-08-22T06:01:20.632Z,10.2
2022-08-22T06:05:28.234Z,11
2022-08-22T06:07:32.094Z,10.3
2022-08-22T06:09:35.965Z,10.4
2022-08-22T06:11:51.671Z,10.5
2022-08-22T06:13:47.278Z,11.6
2022-08-22T06:15:50.815Z,10
2022-08-22T06:17:54.670Z,11.1
2022-08-22T06:19:58.508Z,11.3
2022-08-22T06:22:02.381Z,10.6
2022-08-22T06:24:06.240Z,9.3
2022-08-22T19:13:57.531Z,5
2022-08-22T19:16:01.142Z,4.7
2022-08-22T19:18:04.965Z,4.4
2022-08-22T19:20:11.698Z,5.2
2022-08-22T19:24:18.963Z,4.7
2022-08-22T19:26:22.929Z,5.7
2022-08-22T19:30:30.180Z,5.6
2022-08-22T19:32:33.925Z,4.8
2022-08-22T19:34:40.947Z,5.4
2022-08-22T19:38:48.440Z,5
2022-08-22T19:40:52.242Z,5.4
2022-08-22T19:44:59.694Z,6
2022-08-22T19:47:03.454Z,6
2022-08-22T19:49:10.513Z,5.6
2022-08-22T19:51:14.242Z,5.2
2022-08-22T19:53:18.021Z,5.1
2022-08-22T19:55:21.781Z,5
2022-08-22T20:01:33.146Z,5.3
2022-08-22T20:03:40.160Z,5.3
2022-08-22T20:12:58.896Z,5.5
2022-08-22T20:17:09.578Z,5.1
2022-08-22T20:19:13.696Z,6.8
2022-08-22T20:21:17.158Z,7.5
2022-08-22T20:23:20.929Z,7.6
2022-08-22T20:25:42.560Z,7.4
2022-08-22T20:27:28.483Z,6.3
2022-08-22T20:31:39.359Z,8.1
2022-08-22T20:33:43.124Z,8.1
2022-08-22T20:35:46.894Z,8.4
2022-08-22T20:38:06.411Z,8.4
2022-08-22T20:39:58.684Z,8.4
2022-08-22T20:41:58.279Z,7.4
2022-08-22T20:44:02.065Z,8.2
2022-08-22T20:46:12.438Z,8.4
2022-08-22T20:48:12.936Z,7.7
2022-08-22T20:50:16.710Z,8.5
2022-08-22T20:52:20.488Z,8.1
2022-08-22T20:54:24.286Z,8.2
2022-08-22T20:56:28.217Z,8.5
2022-08-22T20:58:31.839Z,8.1
2022-08-22T21:05:50.066Z,6.9
2022-08-22T21:07:53.863Z,6.6
2022-08-22T21:14:08.533Z,7.4
2022-08-22T21:16:12.363Z,8
2022-08-22T21:20:19.908Z,7.3
2022-08-22T21:22:23.722Z,8.3
2022-08-22T21:24:27.529Z,8.3
2022-08-22T21:26:31.499Z,8
2022-08-22T21:28:38.396Z,8.6
2022-08-22T21:30:42.215Z,8.6
2022-08-22T21:32:46.017Z,7.8
2022-08-22T21:34:49.828Z,8
2022-08-22T21:36:53.632Z,8.9
2022-08-22T21:38:57.403Z,7.7
2022-08-22T21:41:01.219Z,8.6
2022-08-22T21:43:08.303Z,9.2
2022-08-22T21:45:12.107Z,8.3
2022-08-22T21:57:38.270Z,9.9
2022-08-22T21:59:50.953Z,9.6
2022-08-22T22:02:49.446Z,9.7
2022-08-22T22:04:53.238Z,9.4
2022-08-22T22:06:57.032Z,9.5
2022-08-22T22:09:00.847Z,9
2022-08-22T22:11:08.395Z,10
2022-08-22T22:13:11.761Z,8.6
2022-08-22T22:15:15.557Z,9.9
2022-08-22T22:17:19.375Z,9.3
2022-08-22T22:19:23.198Z,8.9
2022-08-22T22:21:27.010Z,8.7
2022-08-22T22:23:30.806Z,9
2022-08-22T22:25:40.759Z,8.8
2022-08-22T22:31:49.344Z,9.9
2022-08-22T22:33:53.173Z,9.8
2022-08-22T22:40:07.999Z,9.5
2022-08-22T22:42:11.725Z,9.4
2022-08-22T22:44:15.557Z,10.1
2022-08-22T22:46:19.425Z,9
2022-08-22T22:48:24.211Z,9
2022-08-22T22:50:27.025Z,10.7
2022-08-22T22:52:30.882Z,9
2022-08-22T22:54:37.965Z,9.8
2022-08-22T22:56:41.775Z,10.8
2022-08-22T22:58:45.600Z,9.6
2022-08-22T23:01:04.445Z,9.9
2022-08-22T23:03:08.154Z,9.9
2022-08-22T23:05:11.993Z,10.5
2022-08-22T23:09:22.922Z,9.8
2022-08-22T23:13:30.546Z,10.6
2022-08-22T23:15:34.409Z,10.8
2022-08-22T23:17:38.222Z,10.3
2022-08-22T23:19:42.056Z,11
2022-08-22T23:21:49.147Z,12.1
2022-08-22T23:23:52.960Z,10.4
2022-08-22T23:32:08.283Z,10.3
2022-08-22T23:36:19.221Z,11.2
2022-08-22T23:38:23.044Z,10.2
2022-08-22T23:42:30.700Z,10.6
2022-08-22T23:46:38.410Z,11.6
2022-08-22T23:48:42.231Z,9.6
2022-08-22T23:50:49.338Z,11.5
2022-08-22T23:56:00.570Z,10.5
